createdAt,value
2019-04-16T00:01:25.228Z,4.67
2019-04-16T00:03:56.805Z,4.63
2019-04-16T00:06:28.520Z,4.62
2019-04-16T00:09:00.063Z,4.51
2019-04-16T00:11:34.358Z,4.47
2019-04-16T00:14:17.876Z,4.39
2019-04-16T00:16:47.888Z,4.37
2019-04-16T00:19:17.859Z,4.25
2019-04-16T00:21:49.435Z,4.16
2019-04-16T00:24:21.050Z,4.10
2019-04-16T00:26:51.646Z,4.07
2019-04-16T00:29:21.676Z,3.96
2019-04-16T00:31:53.322Z,3.85
2019-04-16T00:34:23.350Z,3.78
2019-04-16T00:36:53.365Z,3.69
2019-04-16T00:39:24.796Z,3.68
2019-04-16T00:41:55.464Z,3.64
2019-04-16T00:44:25.576Z,3.55
2019-04-16T00:46:55.484Z,3.57
2019-04-16T00:49:26.576Z,3.50
2019-04-16T00:51:57.150Z,3.49
2019-04-16T00:54:27.196Z,3.41
2019-04-16T00:56:57.132Z,3.38
2019-04-16T00:59:27.170Z,3.32
2019-04-16T01:01:57.108Z,3.31
2019-04-16T01:04:27.131Z,3.22
2019-04-16T01:06:57.143Z,3.22
2019-04-16T01:09:27.176Z,3.22
2019-04-16T01:11:57.182Z,3.38
2019-04-16T01:14:27.482Z,3.35
2019-04-16T01:16:57.639Z,3.30
2019-04-16T01:19:27.679Z,3.31
2019-04-16T01:21:57.622Z,3.26
2019-04-16T01:24:27.594Z,3.16
2019-04-16T01:26:59.055Z,3.07
2019-04-16T01:29:33.659Z,3.03
2019-04-16T01:32:18.753Z,2.97
2019-04-16T01:40:50.948Z,2.88
2019-04-16T01:43:25.518Z,2.82
2019-04-16T01:45:52.663Z,2.78
2019-04-16T01:48:22.603Z,2.82
2019-04-16T01:50:52.644Z,2.84
2019-04-16T01:53:22.582Z,2.78
2019-04-16T01:55:56.746Z,2.74
2019-04-16T01:58:24.270Z,2.74
2019-04-16T02:00:54.242Z,2.70
2019-04-16T02:03:24.252Z,2.66
2019-04-16T02:05:54.863Z,2.60
2019-04-16T02:08:28.307Z,2.57
2019-04-16T02:10:57.340Z,2.56
2019-04-16T02:13:27.328Z,2.49
2019-04-16T02:15:57.259Z,2.43
2019-04-16T02:18:29.821Z,2.41
2019-04-16T02:20:58.872Z,2.44
2019-04-16T02:23:28.839Z,2.32
2019-04-16T02:25:58.802Z,2.30
2019-04-16T02:28:29.048Z,2.43
2019-04-16T02:30:59.279Z,2.33
2019-04-16T02:33:29.249Z,2.20
2019-04-16T02:35:59.188Z,2.26
2019-04-16T02:38:29.235Z,2.22
2019-04-16T02:40:59.167Z,2.15
2019-04-16T02:43:29.139Z,2.08
2019-04-16T02:45:59.178Z,2.06
2019-04-16T02:48:29.125Z,1.99
2019-04-16T02:51:07.318Z,1.89
2019-04-16T02:53:42.734Z,1.77
2019-04-16T02:56:20.052Z,1.68
2019-04-16T02:58:51.658Z,1.82
2019-04-16T03:01:23.309Z,1.80
2019-04-16T03:03:56.237Z,1.61
2019-04-16T03:06:31.484Z,1.51
2019-04-16T03:08:58.310Z,1.51
2019-04-16T03:11:28.246Z,1.46
2019-04-16T03:13:59.338Z,1.44
2019-04-16T03:16:43.235Z,1.59
2019-04-16T03:19:18.864Z,1.48
2019-04-16T03:21:46.518Z,1.47
2019-04-16T03:24:16.459Z,1.43
2019-04-16T03:26:47.635Z,1.41
2019-04-16T03:29:18.166Z,1.34
2019-04-16T03:31:48.120Z,1.34
2019-04-16T03:34:21.458Z,1.29
2019-04-16T03:36:49.721Z,1.30
2019-04-16T03:39:19.682Z,1.27
2019-04-16T03:41:49.624Z,1.37
2019-04-16T03:44:19.595Z,1.42
2019-04-16T03:46:49.535Z,1.40
2019-04-16T03:49:19.511Z,1.39
2019-04-16T03:51:49.456Z,1.35
2019-04-16T03:54:22.305Z,1.35
2019-04-16T03:56:51.072Z,1.39
2019-04-16T03:59:21.047Z,1.37
2019-04-16T04:01:51.057Z,1.49
2019-04-16T04:04:21.037Z,1.35
2019-04-16T04:06:50.973Z,1.42
2019-04-16T04:09:22.225Z,1.46
2019-04-16T04:11:52.584Z,1.46
2019-04-16T04:14:23.610Z,1.39
2019-04-16T04:16:53.872Z,1.34
2019-04-16T04:19:23.843Z,1.38
2019-04-16T04:21:54.490Z,1.45
2019-04-16T04:24:24.551Z,1.42
2019-04-16T04:26:54.489Z,1.35
2019-04-16T04:29:24.955Z,1.47
2019-04-16T04:31:55.296Z,1.44
2019-04-16T04:34:25.267Z,1.38
2019-04-16T04:36:58.724Z,1.36
2019-04-16T04:39:26.858Z,1.37
2019-04-16T04:41:57.259Z,1.38
2019-04-16T04:44:27.541Z,1.52
2019-04-16T04:46:57.529Z,1.44
2019-04-16T04:49:30.348Z,1.43
2019-04-16T04:51:59.290Z,1.47
2019-04-16T04:54:29.261Z,1.45
2019-04-16T04:57:00.241Z,1.41
2019-04-16T04:59:30.626Z,1.45
2019-04-16T05:02:01.378Z,1.46
2019-04-16T05:04:35.933Z,1.46
2019-04-16T05:07:08.624Z,1.45
2019-04-16T05:09:38.597Z,1.56
2019-04-16T05:12:08.711Z,1.49
2019-04-16T05:14:40.312Z,1.46
2019-04-16T05:17:10.283Z,1.49
2019-04-16T05:19:40.221Z,1.56
2019-04-16T05:22:10.205Z,1.69
2019-04-16T05:24:40.208Z,1.84
2019-04-16T05:27:10.274Z,2.25
2019-04-16T05:29:40.246Z,2.25
2019-04-16T05:32:10.246Z,2.37
2019-04-16T05:34:40.214Z,2.55
2019-04-16T05:37:10.165Z,2.68
2019-04-16T05:39:40.100Z,2.78
2019-04-16T05:42:10.078Z,2.96
2019-04-16T05:44:40.442Z,3.14
2019-04-16T05:47:10.465Z,3.36
2019-04-16T05:49:41.170Z,3.59
2019-04-16T05:52:11.278Z,3.80
2019-04-16T05:54:44.446Z,4.01
2019-04-16T05:57:27.431Z,4.23
2019-04-16T05:59:58.253Z,4.43
2019-04-16T06:02:32.899Z,4.66
2019-04-16T06:05:02.250Z,4.86
2019-04-16T06:07:37.711Z,5.04
2019-04-16T06:10:07.231Z,5.23
2019-04-16T06:12:54.432Z,5.42
2019-04-16T06:15:26.888Z,5.58
2019-04-16T06:17:58.491Z,5.77
2019-04-16T06:20:33.330Z,6.10
2019-04-16T06:23:07.881Z,6.10
2019-04-16T06:25:41.407Z,6.29
2019-04-16T06:28:17.462Z,6.63
2019-04-16T06:30:51.289Z,6.74
2019-04-16T06:33:32.105Z,6.74
2019-04-16T06:36:19.536Z,7.05
2019-04-16T06:38:51.391Z,7.05
2019-04-16T06:41:22.683Z,7.38
2019-04-16T06:43:58.381Z,7.38
2019-04-16T06:46:45.274Z,7.54
2019-04-16T06:49:23.714Z,7.70
2019-04-16T06:52:16.065Z,7.97
2019-04-16T06:54:52.363Z,8.16
2019-04-16T06:57:42.858Z,8.16
2019-04-16T07:00:25.166Z,8.38
2019-04-16T07:03:02.580Z,8.38
2019-04-16T07:05:48.658Z,8.69
2019-04-16T07:08:36.923Z,8.70
2019-04-16T07:10:58.674Z,8.70
2019-04-16T07:13:28.420Z,8.90
2019-04-16T07:15:58.079Z,8.97
2019-04-16T07:18:27.779Z,8.97
2019-04-16T07:20:57.508Z,9.12
2019-04-16T07:23:27.468Z,9.34
2019-04-16T07:25:57.534Z,9.26
2019-04-16T07:28:29.155Z,9.42
2019-04-16T07:31:32.879Z,9.68
2019-04-16T07:34:01.573Z,9.76
2019-04-16T07:36:32.883Z,9.91
2019-04-16T07:39:05.268Z,10.11
2019-04-16T07:41:46.155Z,10.29
2019-04-16T07:44:17.472Z,10.36
2019-04-16T07:46:54.685Z,10.56
2019-04-16T07:49:41.951Z,10.68
2019-04-16T07:52:22.161Z,10.64
2019-04-16T07:54:53.476Z,10.74
2019-04-16T07:57:23.187Z,10.77
2019-04-16T07:59:52.948Z,10.83
2019-04-16T08:02:22.587Z,11.09
2019-04-16T08:04:52.236Z,11.33
2019-04-16T08:07:21.911Z,11.35
2019-04-16T08:09:51.699Z,11.55
2019-04-16T08:12:29.885Z,11.71
2019-04-16T08:14:52.857Z,11.83
2019-04-16T08:17:22.532Z,12.09
2019-04-16T08:19:55.196Z,12.13
2019-04-16T08:22:24.541Z,12.22
2019-04-16T08:24:59.743Z,12.38
2019-04-16T08:27:27.512Z,12.36
2019-04-16T08:30:02.471Z,12.52
2019-04-16T08:32:28.639Z,12.74
2019-04-16T08:34:58.377Z,12.92
2019-04-16T08:37:28.035Z,13.08
2019-04-16T08:39:57.750Z,13.18
2019-04-16T08:42:29.515Z,13.18
2019-04-16T08:44:58.861Z,13.42
2019-04-16T08:47:28.617Z,13.69
2019-04-16T08:49:58.581Z,13.88
2019-04-16T08:52:28.587Z,13.92
2019-04-16T08:54:58.264Z,14.00
2019-04-16T08:57:31.755Z,14.12
2019-04-16T08:59:59.288Z,14.26
2019-04-16T09:02:29.335Z,14.22
2019-04-16T09:04:59.792Z,14.46
2019-04-16T09:07:41.532Z,14.37
2019-04-16T09:10:18.253Z,14.33
2019-04-16T09:12:50.751Z,14.40
2019-04-16T09:15:17.976Z,14.62
2019-04-16T09:17:49.518Z,14.71
2019-04-16T09:20:23.048Z,14.91
2019-04-16T09:22:53.821Z,15.22
2019-04-16T09:25:28.042Z,15.14
2019-04-16T09:28:02.438Z,15.21
2019-04-16T09:30:39.604Z,15.22
2019-04-16T09:33:16.878Z,15.13
2019-04-16T09:35:49.643Z,15.31
2019-04-16T09:38:21.073Z,15.55
2019-04-16T09:40:54.503Z,15.78
2019-04-16T09:43:34.847Z,15.81
2019-04-16T09:46:10.913Z,16.03
2019-04-16T09:48:35.949Z,16.26
2019-04-16T09:51:06.597Z,16.07
2019-04-16T09:53:39.985Z,16.22
2019-04-16T09:56:19.672Z,16.41
2019-04-16T09:58:49.475Z,16.15
2019-04-16T10:01:22.039Z,16.41
2019-04-16T10:03:55.957Z,16.79
2019-04-16T10:06:25.693Z,16.90
2019-04-16T10:08:56.819Z,16.92
2019-04-16T10:11:26.758Z,16.77
2019-04-16T10:13:56.541Z,16.58
2019-04-16T10:16:27.941Z,16.70
2019-04-16T10:18:57.682Z,17.05
2019-04-16T10:21:29.067Z,17.38
2019-04-16T10:24:00.328Z,17.50
2019-04-16T10:26:30.289Z,17.59
2019-04-16T10:29:05.814Z,17.74
2019-04-16T10:31:34.260Z,17.44
2019-04-16T10:34:04.034Z,17.44
2019-04-16T10:36:37.128Z,17.25
2019-04-16T10:39:20.970Z,17.72
2019-04-16T10:41:56.533Z,18.24
2019-04-16T10:44:44.140Z,18.56
2019-04-16T10:47:24.078Z,18.46
2019-04-16T10:49:55.626Z,18.52
2019-04-16T10:52:43.409Z,18.78
2019-04-16T10:55:20.530Z,19.00
2019-04-16T10:58:06.788Z,19.30
2019-04-16T11:00:54.298Z,20.26
2019-04-16T11:03:28.524Z,21.75
2019-04-16T11:06:00.078Z,21.56
2019-04-16T11:08:29.873Z,21.89
2019-04-16T11:10:59.679Z,22.27
2019-04-16T11:13:39.933Z,22.09
2019-04-16T11:16:13.752Z,22.35
2019-04-16T11:18:44.240Z,22.56
2019-04-16T11:21:14.058Z,23.19
2019-04-16T11:23:43.792Z,23.26
2019-04-16T11:26:13.526Z,23.63
2019-04-16T11:28:43.212Z,24.21
2019-04-16T11:31:14.559Z,25.01
2019-04-16T11:33:44.421Z,25.92
2019-04-16T11:36:19.394Z,25.89
2019-04-16T11:38:45.490Z,26.70
2019-04-16T11:41:15.383Z,27.35
2019-04-16T11:43:45.022Z,27.70
2019-04-16T11:46:14.870Z,27.85
2019-04-16T11:48:44.568Z,27.84
2019-04-16T11:51:14.393Z,27.10
2019-04-16T11:53:44.138Z,26.92
2019-04-16T11:56:13.816Z,27.38
2019-04-16T11:58:44.973Z,28.81
2019-04-16T12:01:23.252Z,29.66
2019-04-16T12:03:56.283Z,29.67
2019-04-16T12:06:31.399Z,28.61
2019-04-16T12:09:04.776Z,27.59
2019-04-16T12:11:42.586Z,28.17
2019-04-16T12:14:29.630Z,28.01
2019-04-16T12:17:05.398Z,28.28
2019-04-16T12:19:45.759Z,27.32
2019-04-16T12:22:22.729Z,26.51
2019-04-16T12:25:05.767Z,26.79
2019-04-16T12:27:37.139Z,27.08
2019-04-16T12:30:24.991Z,27.22
2019-04-16T12:33:14.376Z,27.66
2019-04-16T12:35:47.755Z,27.73
2019-04-16T12:38:19.031Z,26.18
2019-04-16T12:40:53.108Z,24.08
2019-04-16T12:43:27.212Z,23.13
2019-04-16T12:46:10.317Z,23.84
2019-04-16T12:48:47.190Z,22.74
2019-04-16T12:51:21.250Z,21.85
2019-04-16T12:53:53.517Z,21.17
2019-04-16T12:56:41.404Z,20.79
2019-04-16T12:59:22.083Z,21.94
2019-04-16T13:02:00.680Z,24.15
2019-04-16T13:04:41.695Z,24.13
2019-04-16T13:07:13.008Z,25.03
2019-04-16T13:09:52.948Z,26.47
2019-04-16T13:12:32.647Z,25.71
2019-04-16T13:15:19.183Z,23.40
2019-04-16T13:17:56.041Z,21.63
2019-04-16T13:20:43.125Z,20.88
2019-04-16T13:23:14.448Z,21.98
2019-04-16T13:26:00.722Z,24.66
2019-04-16T13:28:30.463Z,27.06
2019-04-16T13:31:00.107Z,28.37
2019-04-16T13:33:29.750Z,27.47
2019-04-16T13:35:59.556Z,26.10
2019-04-16T13:38:31.116Z,24.51
2019-04-16T13:41:02.184Z,23.41
2019-04-16T13:43:45.961Z,22.53
2019-04-16T13:46:15.711Z,21.96
2019-04-16T13:48:49.642Z,21.94
2019-04-16T13:51:20.972Z,21.30
2019-04-16T13:54:08.413Z,21.02
2019-04-16T13:56:42.268Z,20.80
2019-04-16T13:59:13.561Z,20.95
2019-04-16T14:01:45.994Z,19.97
2019-04-16T14:04:15.830Z,20.63
2019-04-16T14:06:46.217Z,21.59
2019-04-16T14:09:15.985Z,22.43
2019-04-16T14:11:45.622Z,23.02
2019-04-16T14:14:18.207Z,23.59
2019-04-16T14:16:47.202Z,23.72
2019-04-16T14:19:16.947Z,23.53
2019-04-16T14:21:47.100Z,24.22
2019-04-16T14:24:16.975Z,24.77
2019-04-16T14:26:46.721Z,24.39
2019-04-16T14:29:16.357Z,24.94
2019-04-16T14:31:48.953Z,26.66
2019-04-16T14:34:36.987Z,26.98
2019-04-16T14:37:06.658Z,25.09
2019-04-16T14:39:37.941Z,23.90
2019-04-16T14:42:07.782Z,23.09
2019-04-16T14:44:47.811Z,22.40
2019-04-16T14:47:17.823Z,21.89
2019-04-16T14:49:47.820Z,21.51
2019-04-16T14:52:18.994Z,22.52
2019-04-16T14:55:06.347Z,24.27
2019-04-16T14:57:39.770Z,25.20
2019-04-16T15:00:16.693Z,26.43
2019-04-16T15:02:53.681Z,26.92
2019-04-16T15:05:24.994Z,27.02
2019-04-16T15:07:56.277Z,25.27
2019-04-16T15:10:36.575Z,24.46
2019-04-16T15:13:25.662Z,25.42
2019-04-16T15:16:10.912Z,25.45
2019-04-16T15:19:04.738Z,24.21
2019-04-16T15:21:36.101Z,23.11
2019-04-16T15:24:13.096Z,22.13
2019-04-16T15:26:44.527Z,21.16
2019-04-16T15:29:15.848Z,20.48
2019-04-16T15:31:49.929Z,20.01
2019-04-16T15:34:24.028Z,19.80
2019-04-16T15:36:55.239Z,19.37
2019-04-16T15:39:26.491Z,19.19
2019-04-16T15:42:17.498Z,19.01
2019-04-16T15:44:52.638Z,18.93
2019-04-16T15:47:32.825Z,18.76
2019-04-16T15:50:04.196Z,18.62
2019-04-16T15:52:46.508Z,18.47
2019-04-16T15:55:26.230Z,18.36
2019-04-16T15:58:04.670Z,18.35
2019-04-16T16:00:52.521Z,18.30
2019-04-16T16:03:32.784Z,18.21
2019-04-16T16:06:04.276Z,17.97
2019-04-16T16:08:38.487Z,17.66
2019-04-16T16:11:08.928Z,17.49
2019-04-16T16:13:38.194Z,17.54
2019-04-16T16:16:10.475Z,17.58
2019-04-16T16:18:39.817Z,17.62
2019-04-16T16:21:09.526Z,17.73
2019-04-16T16:23:39.180Z,17.84
2019-04-16T16:26:08.847Z,17.96
2019-04-16T16:28:38.486Z,18.02
2019-04-16T16:31:08.135Z,18.01
2019-04-16T16:33:37.875Z,17.94
2019-04-16T16:36:07.580Z,17.99
2019-04-16T16:38:37.262Z,17.83
2019-04-16T16:41:06.944Z,17.80
2019-04-16T16:43:37.263Z,17.56
2019-04-16T16:46:08.568Z,17.41
2019-04-16T16:48:39.353Z,17.28
2019-04-16T16:51:09.037Z,17.24
2019-04-16T16:53:45.875Z,17.18
2019-04-16T16:56:25.957Z,17.08
2019-04-16T16:58:59.968Z,17.02
2019-04-16T17:01:34.933Z,16.89
2019-04-16T17:04:04.732Z,16.69
2019-04-16T17:06:34.120Z,16.58
2019-04-16T17:09:04.104Z,16.54
2019-04-16T17:11:35.423Z,16.48
2019-04-16T17:14:05.239Z,16.36
2019-04-16T17:16:34.870Z,16.28
2019-04-16T17:19:04.690Z,16.25
2019-04-16T17:21:34.540Z,16.21
2019-04-16T17:24:04.575Z,16.15
2019-04-16T17:26:34.549Z,16.12
2019-04-16T17:29:04.219Z,16.08
2019-04-16T17:31:36.010Z,16.04
2019-04-16T17:34:06.719Z,16.02
2019-04-16T17:36:36.345Z,15.93
2019-04-16T17:39:10.563Z,15.74
2019-04-16T17:41:57.758Z,15.61
2019-04-16T17:44:42.928Z,15.44
2019-04-16T17:47:30.807Z,15.25
2019-04-16T17:49:47.194Z,15.10
2019-04-16T17:52:27.458Z,15.01
2019-04-16T17:55:01.239Z,14.94
2019-04-16T17:57:35.083Z,14.89
2019-04-16T18:00:24.197Z,14.82
2019-04-16T18:03:10.670Z,14.78
2019-04-16T18:05:41.975Z,14.74
2019-04-16T18:08:19.188Z,14.66
2019-04-16T18:10:53.407Z,14.65
2019-04-16T18:13:31.672Z,14.63
2019-04-16T18:16:19.743Z,14.60
2019-04-16T18:18:52.935Z,14.60
2019-04-16T18:21:39.028Z,14.57
2019-04-16T18:24:28.373Z,14.44
2019-04-16T18:26:59.716Z,14.36
2019-04-16T18:29:42.588Z,14.35
2019-04-16T18:32:21.274Z,14.34
2019-04-16T18:34:58.775Z,14.26
2019-04-16T18:37:33.052Z,14.22
2019-04-16T18:40:20.195Z,14.12
2019-04-16T18:43:09.633Z,14.01
2019-04-16T18:45:58.714Z,13.97
2019-04-16T18:48:30.023Z,13.95
2019-04-16T18:51:01.420Z,13.98
2019-04-16T18:53:31.173Z,13.98
2019-04-16T18:56:00.882Z,13.91
2019-04-16T18:58:30.587Z,13.85
2019-04-16T19:01:01.958Z,13.76
2019-04-16T19:03:31.657Z,13.71
2019-04-16T19:06:01.871Z,13.65
2019-04-16T19:08:41.666Z,13.59
2019-04-16T19:11:03.660Z,13.56
2019-04-16T19:13:33.417Z,13.51
2019-04-16T19:16:03.069Z,13.45
2019-04-16T19:18:32.698Z,13.38
2019-04-16T19:21:02.344Z,13.32
2019-04-16T19:23:32.069Z,13.36
2019-04-16T19:26:01.945Z,13.27
2019-04-16T19:28:31.746Z,13.26
2019-04-16T19:31:01.446Z,13.20
2019-04-16T19:33:37.903Z,13.08
2019-04-16T19:36:02.772Z,12.96
2019-04-16T19:38:32.748Z,12.82
2019-04-16T19:41:04.045Z,12.70
2019-04-16T19:43:35.335Z,12.67
2019-04-16T19:46:05.106Z,12.81
2019-04-16T19:48:36.243Z,12.80
2019-04-16T19:51:07.372Z,12.69
2019-04-16T19:53:37.682Z,12.44
2019-04-16T19:56:07.388Z,12.27
2019-04-16T19:58:37.113Z,12.33
2019-04-16T20:01:06.843Z,12.36
2019-04-16T20:03:36.553Z,12.43
2019-04-16T20:06:06.264Z,12.54
2019-04-16T20:08:39.884Z,12.54
2019-04-16T20:11:07.392Z,12.49
2019-04-16T20:13:37.194Z,12.40
2019-04-16T20:16:06.823Z,12.39
2019-04-16T20:18:50.181Z,12.39
2019-04-16T20:21:07.811Z,12.36
2019-04-16T20:23:37.485Z,12.35
2019-04-16T20:26:07.097Z,12.31
2019-04-16T20:28:36.804Z,12.26
2019-04-16T20:31:06.735Z,12.21
2019-04-16T20:33:36.429Z,12.17
2019-04-16T20:36:06.454Z,12.12
2019-04-16T20:38:36.511Z,12.07
2019-04-16T20:41:06.172Z,12.00
2019-04-16T20:43:35.802Z,11.95
2019-04-16T20:46:05.457Z,11.87
2019-04-16T20:48:35.087Z,11.79
2019-04-16T20:51:04.798Z,11.68
2019-04-16T20:53:34.527Z,11.59
2019-04-16T20:56:04.230Z,11.53
2019-04-16T20:58:33.898Z,11.45
2019-04-16T21:01:04.306Z,11.37
2019-04-16T21:03:33.968Z,11.27
2019-04-16T21:06:07.443Z,11.20
2019-04-16T21:08:35.091Z,11.24
2019-04-16T21:11:08.828Z,11.06
2019-04-16T21:13:36.114Z,10.91
2019-04-16T21:16:05.802Z,10.85
2019-04-16T21:18:35.490Z,10.67
2019-04-16T21:21:05.185Z,10.57
2019-04-16T21:23:36.034Z,10.47
2019-04-16T21:26:05.820Z,10.48
2019-04-16T21:28:39.604Z,10.39
2019-04-16T21:34:16.322Z,10.22
2019-04-16T21:36:50.446Z,10.13
2019-04-16T21:39:24.514Z,10.06
2019-04-16T21:41:54.237Z,10.03
2019-04-16T21:44:23.859Z,9.96
2019-04-16T21:46:57.010Z,9.90
2019-04-16T21:49:37.690Z,9.74
2019-04-16T21:52:08.316Z,9.77
2019-04-16T21:54:39.360Z,9.61
2019-04-16T21:57:13.148Z,9.49
2019-04-16T21:59:40.329Z,9.41
2019-04-16T22:02:29.706Z,9.30
2019-04-16T22:04:59.396Z,9.22
2019-04-16T22:07:29.099Z,9.15
2019-04-16T22:09:58.748Z,9.09
2019-04-16T22:12:28.439Z,9.01
2019-04-16T22:14:58.110Z,8.96
2019-04-16T22:17:27.727Z,8.91
2019-04-16T22:20:01.351Z,8.88
2019-04-16T22:22:28.761Z,8.81
2019-04-16T22:24:58.420Z,8.75
2019-04-16T22:27:28.068Z,8.67
2019-04-16T22:29:57.996Z,8.60
2019-04-16T22:32:30.859Z,8.52
2019-04-16T22:34:59.185Z,8.43
2019-04-16T22:37:29.913Z,8.33
2019-04-16T22:40:06.896Z,8.26
2019-04-16T22:42:57.302Z,8.20
2019-04-16T22:45:38.373Z,8.17
2019-04-16T22:48:08.033Z,8.03
2019-04-16T22:50:38.670Z,7.85
2019-04-16T22:53:08.583Z,7.79
2019-04-16T22:55:42.342Z,7.66
2019-04-16T22:58:11.534Z,7.60
2019-04-16T23:00:44.399Z,7.53
2019-04-16T23:03:16.639Z,7.59
2019-04-16T23:05:45.501Z,7.51
2019-04-16T23:08:15.111Z,7.46
2019-04-16T23:10:44.736Z,7.44
2019-04-16T23:13:14.384Z,7.43
2019-04-16T23:15:44.108Z,7.40
2019-04-16T23:18:17.203Z,7.37
2019-04-16T23:20:45.073Z,7.40
2019-04-16T23:23:18.205Z,7.37
2019-04-16T23:25:46.107Z,7.31
2019-04-16T23:28:15.793Z,7.27
2019-04-16T23:30:48.004Z,7.21
2019-04-16T23:33:16.771Z,7.17
2019-04-16T23:35:46.406Z,7.11
2019-04-16T23:38:16.063Z,7.08
2019-04-16T23:40:45.736Z,7.08
2019-04-16T23:43:22.116Z,7.02
2019-04-16T23:46:08.586Z,6.98
2019-04-16T23:48:44.805Z,6.88
2019-04-16T23:51:34.414Z,6.84
2019-04-16T23:54:14.636Z,6.81
2019-04-16T23:56:45.899Z,6.75
2019-04-16T23:59:17.191Z,6.70
